Time;durP1;ratioP1;P1;durP2;ratioP2;P2;SDS_P1;SDS_P2;PMS_P1;PMS_P2;Temp;Humidity;BMP_temperature;BMP_pressure;BME280_temperature;BME280_humidity;BME280_pressure;Samples;Min_cycle;Max_cycle;Signal;HPM_P1;HPM_P2
2021/05/26 00:00:28;;;;;;;4.77;2.53;;;;;;;18.64;57.25;100409.16;2055158;28;20114;-52
2021/05/26 00:01:29;;;;;;;5.57;2.40;;;;;;;18.64;57.31;100411.91;2057309;28;20042;-49
2021/05/26 00:02:29;;;;;;;4.40;2.30;;;;;;;18.64;57.21;100411.00;2056504;28;20031;-49
2021/05/26 00:03:30;;;;;;;4.63;2.30;;;;;;;18.65;57.20;100415.50;2052926;28;20077;-50
2021/05/26 00:04:30;;;;;;;3.57;2.50;;;;;;;18.64;57.23;100408.28;2054110;28;20035;-49
2021/05/26 00:05:31;;;;;;;7.30;2.40;;;;;;;18.64;57.25;100408.28;2057007;28;20037;-48
2021/05/26 00:06:32;;;;;;;4.77;2.60;;;;;;;18.63;57.06;100406.56;2056948;28;20035;-50
2021/05/26 00:07:32;;;;;;;2.97;2.13;;;;;;;18.63;57.18;100401.09;2056534;28;20818;-50
2021/05/26 00:08:35;;;;;;;4.07;2.13;;;;;;;18.64;57.03;100408.28;2056855;28;20041;-49
2021/05/26 00:09:36;;;;;;;6.65;2.75;;;;;;;18.65;57.10;100410.03;2056406;28;20038;-51
2021/05/26 00:10:36;;;;;;;5.07;3.07;;;;;;;18.63;57.20;100403.84;2057204;28;20035;-51
2021/05/26 00:11:37;;;;;;;4.37;2.30;;;;;;;18.62;57.27;100404.84;2055036;28;20654;-49
2021/05/26 00:12:37;;;;;;;3.90;2.23;;;;;;;18.63;57.22;100407.44;2057255;28;20129;-50
2021/05/26 00:13:38;;;;;;;3.87;2.07;;;;;;;18.63;57.14;100406.56;2055249;28;20363;-48
2021/05/26 00:14:39;;;;;;;4.10;2.43;;;;;;;18.62;57.14;100399.41;2051021;28;20123;-52
2021/05/26 00:15:40;;;;;;;4.15;2.13;;;;;;;18.61;57.28;100397.66;2049478;28;20266;-50
2021/05/26 00:16:40;;;;;;;5.03;2.10;;;;;;;18.62;57.26;100399.41;2056641;28;20044;-50
2021/05/26 00:17:41;;;;;;;5.07;2.40;;;;;;;18.63;57.09;100406.56;2055334;28;20028;-51
2021/05/26 00:18:41;;;;;;;3.97;2.07;;;;;;;18.62;57.23;100400.25;2056578;28;20039;-48
2021/05/26 00:19:43;;;;;;;6.37;2.57;;;;;;;18.60;57.15;100413.19;2054959;28;20026;-50
2021/05/26 00:20:46;;;;;;;5.70;2.50;;;;;;;18.62;57.12;100407.59;2046328;28;20097;-50
2021/05/26 00:21:46;;;;;;;4.97;2.78;;;;;;;18.61;57.18;100403.97;2052457;28;20454;-48
2021/05/26 00:22:47;;;;;;;4.77;2.37;;;;;;;18.62;57.26;100404.84;2056687;28;20027;-47
2021/05/26 00:23:47;;;;;;;3.50;2.17;;;;;;;18.60;57.20;100399.53;2056778;28;20042;-51
2021/05/26 00:24:48;;;;;;;3.83;2.27;;;;;;;18.61;57.05;100397.66;2056426;28;20094;-49
2021/05/26 00:25:48;;;;;;;3.90;2.00;;;;;;;18.63;57.05;100401.09;2056417;28;20033;-47
2021/05/26 00:26:49;;;;;;;4.60;1.93;;;;;;;18.62;57.06;100399.41;2057087;28;20431;-48
2021/05/26 00:27:57;;;;;;;4.30;2.10;;;;;;;18.62;57.15;100402.13;2056619;28;20082;-50
2021/05/26 00:28:58;;;;;;;3.58;2.42;;;;;;;18.61;57.18;100397.66;2048639;28;20433;-48
2021/05/26 00:29:58;;;;;;;4.67;2.67;;;;;;;18.61;57.16;100398.50;2057206;28;20031;-50
2021/05/26 00:31:00;;;;;;;6.67;3.13;;;;;;;18.60;57.14;100402.25;2056717;28;20810;-50
2021/05/26 00:32:00;;;;;;;5.60;2.40;;;;;;;18.62;57.14;100399.41;2057333;28;20057;-48
2021/05/26 00:33:02;;;;;;;4.57;2.30;;;;;;;18.60;57.17;100398.66;2056345;28;20341;-50
2021/05/26 00:34:03;;;;;;;4.65;2.50;;;;;;;18.61;57.19;100397.66;2056062;28;20018;-49
2021/05/26 00:35:03;;;;;;;3.87;2.10;;;;;;;18.60;57.18;100401.41;2056362;28;20069;-51
2021/05/26 00:36:05;;;;;;;4.23;2.67;;;;;;;18.60;57.16;100393.19;2055860;28;20041;-48
2021/05/26 00:37:05;;;;;;;4.22;2.20;;;;;;;18.60;57.14;100395.94;2064150;28;20358;-50
2021/05/26 00:38:06;;;;;;;3.37;2.07;;;;;;;18.59;57.14;100395.06;2064237;28;20026;-50
2021/05/26 00:39:06;;;;;;;4.60;1.83;;;;;;;18.60;57.25;100395.94;2055561;28;20508;-49
2021/05/26 00:40:08;;;;;;;2.87;2.30;;;;;;;18.59;57.32;100396.91;2056720;28;20511;-50
2021/05/26 00:41:09;;;;;;;4.45;2.50;;;;;;;18.59;57.19;100394.19;2053898;28;20031;-49
2021/05/26 00:42:10;;;;;;;2.95;2.08;;;;;;;18.59;57.09;100399.66;2056313;28;20514;-49
2021/05/26 00:43:11;;;;;;;4.47;2.33;;;;;;;18.58;57.27;100396.06;2055830;28;20031;-51
2021/05/26 00:44:16;;;;;;;4.05;2.20;;;;;;;18.58;57.18;100401.53;2056594;28;20085;-51
2021/05/26 00:45:17;;;;;;;5.72;2.38;;;;;;;18.59;57.09;100399.66;2057002;28;20035;-48
2021/05/26 00:46:17;;;;;;;4.10;2.40;;;;;;;18.60;57.11;100390.47;2055006;28;20078;-49
2021/05/26 00:47:44;;;;;;;3.83;2.10;;;;;;;18.57;57.08;100388.88;2056746;28;20031;-49
2021/05/26 00:48:45;;;;;;;2.55;1.92;;;;;;;18.58;57.28;100392.47;2055426;28;20035;-50
2021/05/26 00:49:48;;;;;;;4.57;2.30;;;;;;;18.57;57.22;100379.81;2055425;28;20089;-51
2021/05/26 00:50:48;;;;;;;6.05;3.08;;;;;;;18.59;57.16;100394.19;2054427;28;20033;-52
2021/05/26 00:51:49;;;;;;;4.17;2.50;;;;;;;18.58;57.22;100387.88;2051573;28;20054;-48
2021/05/26 00:52:52;;;;;;;5.23;2.53;;;;;;;18.58;57.25;100376.09;2055894;28;20039;-48
2021/05/26 00:53:52;;;;;;;3.45;2.20;;;;;;;18.59;57.29;100388.72;2049118;28;20030;-51
2021/05/26 00:54:52;;;;;;;3.40;2.00;;;;;;;18.57;57.23;100380.69;2054406;28;20105;-48
2021/05/26 00:55:53;;;;;;;4.40;2.00;;;;;;;18.58;57.19;100381.56;2056983;28;20035;-52
2021/05/26 00:56:53;;;;;;;4.33;2.20;;;;;;;18.57;57.28;100383.44;2054429;28;20357;-49
2021/05/26 00:57:55;;;;;;;3.80;1.87;;;;;;;18.57;57.08;100382.53;2057180;28;20109;-50
2021/05/26 00:58:55;;;;;;;3.72;2.38;;;;;;;18.59;56.99;100380.53;2056393;28;20035;-51
2021/05/26 00:59:56;;;;;;;3.63;2.33;;;;;;;18.58;57.13;100381.56;2055640;28;20162;-50
2021/05/26 01:00:56;;;;;;;5.63;2.57;;;;;;;18.57;57.14;100382.53;2056933;28;20504;-49
2021/05/26 01:01:57;;;;;;;4.03;2.00;;;;;;;18.57;57.23;100379.81;2055950;28;20034;-48
2021/05/26 01:02:58;;;;;;;4.27;2.40;;;;;;;18.56;57.31;100367.19;2057070;28;20759;-51
2021/05/26 01:03:59;;;;;;;5.43;2.73;;;;;;;18.56;57.23;100372.63;2054699;28;20026;-48
2021/05/26 01:04:59;;;;;;;3.65;2.20;;;;;;;18.56;57.28;100373.50;2055212;28;20647;-48
2021/05/26 01:06:01;;;;;;;3.93;2.33;;;;;;;18.56;57.20;100373.50;2057123;28;20094;-49
2021/05/26 01:07:01;;;;;;;6.40;2.53;;;;;;;18.56;57.21;100367.19;2055517;28;20459;-51
2021/05/26 01:08:02;;;;;;;5.47;2.53;;;;;;;18.56;57.24;100372.63;2055152;28;20062;-50
2021/05/26 01:09:02;;;;;;;9.57;2.60;;;;;;;18.57;57.31;100363.44;2054116;28;20018;-51
2021/05/26 01:10:03;;;;;;;5.27;2.37;;;;;;;18.56;57.31;100369.91;2055891;28;20031;-51
2021/05/26 01:11:05;;;;;;;3.22;2.05;;;;;;;18.55;57.32;100362.72;2055192;28;20030;-50
2021/05/26 01:12:07;;;;;;;5.07;2.60;;;;;;;18.56;57.17;100367.19;2055605;28;20041;-48
2021/05/26 01:13:08;;;;;;;3.42;1.98;;;;;;;18.56;57.32;100367.19;2056614;28;20033;-52
2021/05/26 01:14:09;;;;;;;;;;;;;;;18.50;57.27;100365.88;2056443;28;20053;-51
2021/05/26 01:15:12;;;;;;;4.75;2.15;;;;;;;18.51;57.50;100358.53;2056616;28;19914;-49
2021/05/26 01:16:12;;;;;;;3.28;1.90;;;;;;;18.52;57.40;100363.00;2055884;28;20776;-47
2021/05/26 01:17:14;;;;;;;2.90;2.00;;;;;;;18.54;57.26;100363.72;2056736;28;20088;-50
2021/05/26 01:18:19;;;;;;;4.88;2.78;;;;;;;18.53;57.35;100362.00;2056565;28;20027;-51
2021/05/26 01:19:19;;;;;;;5.35;2.30;;;;;;;18.53;57.29;100359.28;2053205;28;20037;-51
2021/05/26 01:20:24;;;;;;;4.37;2.47;;;;;;;18.54;57.15;100363.72;2056701;28;20456;-50
2021/05/26 01:21:25;;;;;;;4.28;2.08;;;;;;;18.53;57.24;100357.41;2052999;28;20357;-47
2021/05/26 01:22:25;;;;;;;5.10;2.63;;;;;;;18.53;57.33;100359.28;2051793;28;20106;-51
2021/05/26 01:23:27;;;;;;;4.43;1.93;;;;;;;18.54;57.39;100359.13;2056995;28;20077;-48
2021/05/26 01:24:27;;;;;;;;;;;;;;;18.48;57.30;100353.38;2055825;28;20037;-51
2021/05/26 01:25:28;;;;;;;3.47;1.98;;;;;;;18.50;57.47;100354.09;2056194;28;20580;-48
2021/05/26 01:26:28;;;;;;;2.73;1.77;;;;;;;18.49;57.29;100355.09;2057088;28;20041;-52
2021/05/26 01:27:30;;;;;;;3.33;1.83;;;;;;;18.50;57.46;100345.91;2055711;28;20042;-47
2021/05/26 01:28:32;;;;;;;2.88;2.13;;;;;;;18.50;57.27;100351.38;2056766;28;20078;-51
2021/05/26 01:29:33;;;;;;;3.45;2.08;;;;;;;18.53;57.44;100345.63;2055009;28;20317;-49
2021/05/26 01:30:33;;;;;;;4.70;2.20;;;;;;;18.50;57.13;100344.03;2056357;28;20031;-52
2021/05/26 01:31:33;;;;;;;3.63;2.77;;;;;;;18.52;57.42;100349.34;2056933;28;20424;-49
2021/05/26 01:32:46;;;;;;;5.03;2.03;;;;;;;18.50;57.33;100352.22;2056494;28;20023;-48
2021/05/26 01:33:46;;;;;;;3.17;1.85;;;;;;;18.51;57.37;100347.63;2055726;28;20050;-52
2021/05/26 01:34:46;;;;;;;3.90;2.10;;;;;;;18.51;57.27;100347.63;2056398;28;20046;-48
2021/05/26 01:35:48;;;;;;;4.73;2.30;;;;;;;18.52;57.18;100341.16;2055585;28;20034;-50
2021/05/26 01:36:49;;;;;;;3.38;1.73;;;;;;;18.51;57.33;100343.03;2056637;28;20088;-50
2021/05/26 01:37:49;;;;;;;3.63;1.70;;;;;;;18.52;57.20;100343.88;2055540;28;20511;-50
2021/05/26 01:38:50;;;;;;;2.43;1.80;;;;;;;18.52;57.29;100349.34;2056538;28;20030;-50
2021/05/26 01:39:50;;;;;;;4.30;2.47;;;;;;;18.53;57.19;100345.63;2056721;28;20063;-49
2021/05/26 01:41:02;;;;;;;3.40;2.00;;;;;;;18.52;57.14;100338.41;2054557;28;20109;-51
2021/05/26 01:42:02;;;;;;;3.97;2.35;;;;;;;18.52;57.26;100342.03;2056571;28;20023;-50
2021/05/26 01:43:03;;;;;;;2.87;1.73;;;;;;;18.52;57.09;100343.88;2056157;28;20045;-51
2021/05/26 01:44:04;;;;;;;4.00;2.27;;;;;;;18.52;57.36;100349.34;2056104;28;20543;-51
2021/05/26 01:45:09;;;;;;;3.87;2.13;;;;;;;18.52;57.03;100343.88;2056379;28;20441;-49
2021/05/26 01:46:10;;;;;;;4.32;2.67;;;;;;;18.53;57.16;100351.09;2052129;28;20031;-49
2021/05/26 01:47:10;;;;;;;4.63;1.90;;;;;;;18.53;57.17;100348.34;2048582;28;20126;-50
2021/05/26 01:48:11;;;;;;;4.07;2.63;;;;;;;18.53;57.29;100345.63;2056280;28;20042;-48
2021/05/26 01:49:11;;;;;;;5.77;2.47;;;;;;;18.52;57.13;100346.59;2055295;28;20089;-49
2021/05/26 01:50:21;;;;;;;3.97;2.43;;;;;;;18.52;57.22;100343.88;2056521;28;20382;-48
2021/05/26 01:51:22;;;;;;;3.63;1.73;;;;;;;18.53;57.29;100343.75;2054860;28;20034;-50
2021/05/26 01:52:22;;;;;;;5.73;2.33;;;;;;;18.52;57.27;100346.59;2053406;28;20094;-52
2021/05/26 01:53:23;;;;;;;4.63;2.30;;;;;;;18.51;57.25;100342.16;2055677;28;20205;-49
2021/05/26 01:54:23;;;;;;;3.53;2.30;;;;;;;18.51;57.08;100342.16;2056338;28;20034;-52
2021/05/26 01:55:24;;;;;;;3.07;2.20;;;;;;;18.52;57.03;100354.81;2056171;28;20057;-50
2021/05/26 01:56:26;;;;;;;3.97;2.30;;;;;;;18.51;57.13;100339.44;2056034;28;20038;-48
2021/05/26 01:57:27;;;;;;;3.88;2.00;;;;;;;18.53;57.27;100340.16;2056409;28;20494;-51
2021/05/26 01:58:27;;;;;;;5.23;1.87;;;;;;;18.52;57.13;100343.88;2055544;28;20031;-50
2021/05/26 01:59:28;;;;;;;4.47;2.10;;;;;;;18.52;57.24;100344.78;2055916;28;20026;-50
2021/05/26 02:00:28;;;;;;;3.50;2.07;;;;;;;18.52;57.20;100343.88;2054219;28;20042;-52
2021/05/26 02:01:29;;;;;;;4.17;2.03;;;;;;;18.53;57.24;100340.16;2055532;28;20178;-51
2021/05/26 02:02:29;;;;;;;4.40;2.63;;;;;;;18.52;57.13;100343.88;2053541;28;20047;-51
2021/05/26 02:03:30;;;;;;;4.57;2.20;;;;;;;18.50;57.12;100341.31;2055145;28;20045;-48
2021/05/26 02:04:30;;;;;;;4.60;2.40;;;;;;;18.51;57.18;100342.16;2056729;28;20042;-48
2021/05/26 02:05:31;;;;;;;3.10;1.97;;;;;;;18.50;57.18;100335.84;2055682;28;20090;-47
2021/05/26 02:06:31;;;;;;;3.20;2.00;;;;;;;18.51;57.24;100336.72;2056576;28;20061;-49
2021/05/26 02:07:31;;;;;;;3.77;2.00;;;;;;;18.50;57.25;100333.13;2056038;28;20385;-52
2021/05/26 02:08:32;;;;;;;4.23;2.00;;;;;;;18.50;57.08;100335.84;2056081;28;20030;-50
2021/05/26 02:09:34;;;;;;;3.90;1.97;;;;;;;18.51;57.26;100339.44;2056334;28;20062;-47
2021/05/26 02:13:13;;;;;;;2.97;1.92;;;;;;;18.45;57.32;100327.22;2056164;28;20031;-49
2021/05/26 02:14:13;;;;;;;2.87;2.00;;;;;;;18.47;57.19;100324.31;2056421;28;20035;-50
2021/05/26 02:15:14;;;;;;;3.70;2.03;;;;;;;18.47;57.37;100335.25;2055364;28;20107;-50
2021/05/26 02:16:15;;;;;;;4.72;2.00;;;;;;;18.47;57.40;100327.06;2056560;28;20429;-49
2021/05/26 02:17:16;;;;;;;4.50;1.80;;;;;;;18.49;57.10;100325.06;2056067;28;20071;-50
2021/05/26 02:18:17;;;;;;;5.35;2.80;;;;;;;18.49;57.10;100328.66;2054746;28;20058;-49
2021/05/26 02:19:17;;;;;;;4.60;2.30;;;;;;;18.48;57.17;100321.47;2055172;28;20643;-50
2021/05/26 02:20:17;;;;;;;4.40;2.70;;;;;;;18.47;57.12;100318.88;2056132;28;20062;-51
2021/05/26 02:21:18;;;;;;;4.23;2.10;;;;;;;18.48;57.29;100320.63;2056485;28;20026;-50
2021/05/26 02:22:19;;;;;;;3.63;1.90;;;;;;;18.48;57.20;100331.53;2053154;28;20710;-49
2021/05/26 02:23:19;;;;;;;4.55;1.83;;;;;;;18.48;57.25;100326.06;2056383;28;20037;-49
2021/05/26 02:24:20;;;;;;;5.00;2.10;;;;;;;18.49;57.22;100327.78;2053251;28;20100;-50
2021/05/26 02:25:20;;;;;;;3.33;1.90;;;;;;;18.48;57.25;100323.34;2048941;28;20490;-50
2021/05/26 02:26:21;;;;;;;2.97;2.23;;;;;;;18.48;57.20;100320.63;2055644;28;20035;-50
2021/05/26 02:27:21;;;;;;;5.13;2.03;;;;;;;18.49;57.10;100322.31;2056212;28;20091;-49
2021/05/26 02:28:22;;;;;;;4.57;2.50;;;;;;;18.48;57.13;100315.16;2056050;28;20054;-51
2021/05/26 02:29:22;;;;;;;3.60;1.90;;;;;;;18.48;57.22;100323.34;2056399;28;20035;-49
2021/05/26 02:30:23;;;;;;;3.73;2.20;;;;;;;18.48;57.12;100320.63;2056402;28;20042;-49
2021/05/26 02:31:24;;;;;;;3.70;1.85;;;;;;;18.48;57.20;100321.47;2054904;28;20038;-49
2021/05/26 02:32:25;;;;;;;4.30;2.50;;;;;;;18.47;57.06;100317.03;2056453;28;20073;-51
2021/05/26 02:33:26;;;;;;;4.25;2.15;;;;;;;18.48;57.37;100316.00;2055618;28;20033;-49
2021/05/26 02:34:27;;;;;;;1.87;1.67;;;;;;;18.47;57.09;100316.13;2055155;28;20042;-51
2021/05/26 02:35:29;;;;;;;3.27;1.90;;;;;;;18.48;57.18;100320.63;2053824;28;20085;-48
2021/05/26 02:36:29;;;;;;;2.95;1.92;;;;;;;18.48;57.10;100320.63;2050616;28;20067;-50
2021/05/26 02:37:30;;;;;;;3.03;1.80;;;;;;;18.46;57.25;100315.28;2055369;28;20030;-50
2021/05/26 02:38:30;;;;;;;3.53;1.93;;;;;;;18.46;57.22;100322.63;2056453;28;20073;-49
2021/05/26 02:39:30;;;;;;;3.50;2.30;;;;;;;18.46;57.15;100311.69;2056221;28;20106;-48
2021/05/26 02:40:34;;;;;;;4.00;1.70;;;;;;;18.46;57.15;100312.56;2055999;28;20045;-50
2021/05/26 02:41:34;;;;;;;5.03;1.90;;;;;;;18.47;57.34;100307.94;2055895;28;20042;-51
2021/05/26 02:42:36;;;;;;;3.37;2.03;;;;;;;18.47;57.29;100302.50;2055229;28;20026;-50
2021/05/26 02:43:36;;;;;;;3.55;1.73;;;;;;;18.46;57.29;100317.16;2055739;28;20031;-52
2021/05/26 02:44:36;;;;;;;4.53;2.07;;;;;;;18.47;57.25;100307.94;2054483;28;20045;-50
2021/05/26 02:45:37;;;;;;;2.83;2.00;;;;;;;18.46;57.16;100312.56;2056784;28;20037;-48
2021/05/26 02:46:38;;;;;;;4.60;2.13;;;;;;;18.45;57.22;100310.84;2057610;28;20054;-48
2021/05/26 02:47:39;;;;;;;3.70;2.17;;;;;;;18.46;57.08;100306.25;2056510;28;20518;-52
2021/05/26 02:48:39;;;;;;;5.07;2.60;;;;;;;18.46;57.28;100306.25;2057284;28;20030;-50
2021/05/26 02:49:39;;;;;;;2.90;1.87;;;;;;;18.45;57.17;100309.97;2057562;28;20039;-49
2021/05/26 02:50:41;;;;;;;2.13;1.63;;;;;;;18.47;57.16;100307.94;2056724;28;20231;-50
2021/05/26 02:51:42;;;;;;;4.80;2.17;;;;;;;18.46;57.14;100314.44;2056946;28;20074;-49
2021/05/26 02:52:44;;;;;;;3.75;2.25;;;;;;;18.45;57.10;100315.41;2053161;28;20042;-48
2021/05/26 02:53:44;;;;;;;2.83;2.08;;;;;;;18.45;57.07;100318.16;2056617;28;20030;-49
2021/05/26 02:54:45;;;;;;;4.67;2.27;;;;;;;18.46;57.17;100317.16;2056715;28;20138;-48
2021/05/26 02:55:45;;;;;;;3.97;2.53;;;;;;;18.46;57.28;100314.44;2058491;28;20045;-50
2021/05/26 02:56:45;;;;;;;3.43;2.10;;;;;;;18.45;57.11;100316.31;2057380;28;20031;-50
2021/05/26 02:57:46;;;;;;;3.50;1.83;;;;;;;18.47;57.16;100324.31;2057367;28;20378;-51
2021/05/26 02:58:46;;;;;;;4.90;3.07;;;;;;;18.46;57.28;100317.16;2056275;28;20022;-48
2021/05/26 02:59:47;;;;;;;5.27;1.90;;;;;;;18.45;57.14;100320.88;2057755;28;20082;-50
2021/05/26 03:00:47;;;;;;;4.43;2.53;;;;;;;18.46;57.16;100317.16;2057063;28;20034;-51
2021/05/26 03:01:48;;;;;;;2.87;2.13;;;;;;;18.45;57.06;100312.69;2057714;28;20023;-50
2021/05/26 03:02:49;;;;;;;3.30;2.20;;;;;;;18.45;57.09;100318.16;2057643;28;20708;-50
2021/05/26 03:03:49;;;;;;;3.53;1.77;;;;;;;18.44;57.16;100314.56;2056709;28;20031;-49
2021/05/26 03:04:50;;;;;;;4.37;2.10;;;;;;;18.44;57.25;100320.00;2057963;28;20042;-50
2021/05/26 03:05:50;;;;;;;3.27;1.87;;;;;;;18.44;56.97;100317.28;2056620;28;20026;-50
2021/05/26 03:06:51;;;;;;;4.80;1.83;;;;;;;18.43;57.16;100319.16;2057636;28;20026;-51
2021/05/26 03:07:51;;;;;;;3.57;2.03;;;;;;;18.42;57.17;100317.44;2056148;28;20133;-50
2021/05/26 03:08:51;;;;;;;2.90;1.90;;;;;;;18.43;57.16;100312.84;2057699;28;20022;-51
2021/05/26 03:09:52;;;;;;;3.47;2.07;;;;;;;18.43;57.07;100318.31;2057601;28;20448;-48
2021/05/26 03:10:56;;;;;;;3.00;1.90;;;;;;;18.43;57.05;100319.16;2056897;28;20030;-48
2021/05/26 03:11:56;;;;;;;3.65;1.85;;;;;;;18.44;57.04;100320.00;2057431;28;20042;-48
2021/05/26 03:12:57;;;;;;;5.43;2.10;;;;;;;18.43;57.19;100319.16;2056154;28;20026;-50
2021/05/26 03:13:57;;;;;;;3.53;2.10;;;;;;;18.42;56.97;100322.91;2056400;28;20039;-51
2021/05/26 03:14:57;;;;;;;4.33;1.70;;;;;;;18.42;57.08;100317.44;2054477;28;20039;-49
2021/05/26 03:15:58;;;;;;;4.73;2.23;;;;;;;18.42;57.09;100317.44;2057116;28;20743;-50
2021/05/26 03:16:59;;;;;;;4.07;2.50;;;;;;;18.42;57.04;100317.44;2057375;28;20026;-51
2021/05/26 03:17:59;;;;;;;3.90;2.13;;;;;;;18.43;57.18;100318.31;2056774;28;20038;-50
2021/05/26 03:19:00;;;;;;;3.20;1.93;;;;;;;18.42;57.19;100317.44;2056805;28;20062;-51
2021/05/26 03:20:01;;;;;;;2.70;1.50;;;;;;;18.43;57.26;100313.69;2057135;28;20057;-51
2021/05/26 03:21:01;;;;;;;3.47;1.87;;;;;;;18.43;57.08;100319.16;2056993;28;20117;-52
2021/05/26 03:22:02;;;;;;;2.90;1.73;;;;;;;18.43;57.20;100318.31;2055896;28;20273;-51
2021/05/26 03:23:03;;;;;;;3.37;2.13;;;;;;;18.43;57.21;100316.44;2054025;28;20027;-49
2021/05/26 03:24:04;;;;;;;3.50;1.67;;;;;;;18.44;57.16;100317.28;2056322;28;20081;-48
2021/05/26 03:25:06;;;;;;;2.40;1.60;;;;;;;18.43;57.19;100321.88;2057586;28;20472;-50
2021/05/26 03:26:07;;;;;;;4.15;1.90;;;;;;;18.45;57.01;100318.16;2056512;28;20548;-49
2021/05/26 03:27:07;;;;;;;3.20;2.13;;;;;;;18.43;57.18;100321.03;2057141;28;20026;-49
2021/05/26 03:28:08;;;;;;;3.13;1.80;;;;;;;18.42;57.09;100325.63;2057009;28;20117;-51
2021/05/26 03:29:09;;;;;;;4.87;1.87;;;;;;;18.43;56.99;100323.75;2057496;28;20031;-51
2021/05/26 03:30:15;;;;;;;3.27;2.03;;;;;;;18.42;56.95;100322.91;2057797;28;20118;-50
2021/05/26 03:31:15;;;;;;;3.53;2.00;;;;;;;18.44;56.91;100325.47;2056627;28;20026;-48
2021/05/26 03:32:16;;;;;;;3.60;1.87;;;;;;;18.43;57.03;100323.75;2057401;28;20031;-48
2021/05/26 03:33:16;;;;;;;5.57;2.10;;;;;;;18.43;57.12;100318.31;2057036;28;20083;-50
2021/05/26 03:34:17;;;;;;;2.77;1.70;;;;;;;18.43;57.13;100324.63;2056547;28;20027;-50
2021/05/26 03:35:18;;;;;;;3.43;1.83;;;;;;;18.42;57.00;100322.91;2057624;28;20041;-49
2021/05/26 03:36:18;;;;;;;3.53;2.27;;;;;;;18.42;57.12;100325.63;2057179;28;20088;-54
2021/05/26 03:37:18;;;;;;;3.47;2.03;;;;;;;18.42;57.10;100322.91;2057196;28;20046;-50
2021/05/26 03:38:19;;;;;;;2.37;1.83;;;;;;;18.42;57.09;100322.91;2056636;28;20054;-50
2021/05/26 03:39:19;;;;;;;3.73;1.97;;;;;;;18.40;57.00;100322.19;2055710;28;20019;-50
2021/05/26 03:40:20;;;;;;;3.47;2.00;;;;;;;18.40;57.01;100319.44;2057569;28;20496;-53
2021/05/26 03:41:20;;;;;;;2.97;2.00;;;;;;;18.40;57.04;100319.44;2056293;28;20030;-48
2021/05/26 03:42:21;;;;;;;2.83;1.80;;;;;;;18.40;57.07;100319.44;2057329;28;20035;-51
2021/05/26 03:43:22;;;;;;;3.73;2.03;;;;;;;18.40;57.26;100324.91;2056914;28;20026;-51
2021/05/26 03:44:22;;;;;;;3.10;1.63;;;;;;;18.40;57.10;100319.44;2057539;28;20122;-49
2021/05/26 03:45:23;;;;;;;6.60;2.43;;;;;;;18.41;57.16;100320.31;2056833;28;20042;-48
2021/05/26 03:46:24;;;;;;;2.63;1.67;;;;;;;18.40;57.16;100316.72;2056572;28;20062;-51
2021/05/26 03:47:24;;;;;;;4.85;2.20;;;;;;;18.40;56.87;100319.44;2057341;28;20031;-48
2021/05/26 03:48:25;;;;;;;3.67;1.73;;;;;;;18.41;57.12;100320.31;2056804;28;20103;-48
2021/05/26 03:49:25;;;;;;;2.70;1.53;;;;;;;18.39;56.96;100323.16;2057504;28;20034;-51
2021/05/26 03:50:30;;;;;;;2.40;1.60;;;;;;;18.39;57.10;100317.69;2056212;28;20437;-52
2021/05/26 03:51:30;;;;;;;3.03;1.95;;;;;;;18.41;56.94;100314.84;2055635;28;20062;-50
2021/05/26 03:52:31;;;;;;;3.57;2.00;;;;;;;18.39;57.04;100312.25;2056015;28;20039;-50
2021/05/26 03:53:32;;;;;;;4.27;2.10;;;;;;;18.40;57.05;100318.59;2050665;28;20027;-48
2021/05/26 03:54:34;;;;;;;3.57;1.63;;;;;;;18.39;57.10;100314.97;2055934;28;20042;-52
2021/05/26 03:55:34;;;;;;;4.20;2.08;;;;;;;18.41;57.03;100318.44;2055766;28;20030;-50
2021/05/26 03:56:35;;;;;;;2.63;1.90;;;;;;;18.39;56.94;100317.69;2057220;28;20402;-50
2021/05/26 03:57:36;;;;;;;3.30;1.73;;;;;;;18.41;56.93;100314.84;2055316;28;20031;-49
2021/05/26 03:58:37;;;;;;;4.00;1.80;;;;;;;18.39;57.13;100317.69;2054236;28;20053;-49
2021/05/26 03:59:38;;;;;;;4.83;2.57;;;;;;;18.40;57.02;100316.72;2057157;28;20043;-50
2021/05/26 04:00:39;;;;;;;1.98;1.70;;;;;;;18.39;56.96;100306.78;2056567;28;20030;-48
2021/05/26 04:01:39;;;;;;;2.50;1.70;;;;;;;18.39;56.98;100311.38;2057152;28;20031;-50
2021/05/26 04:02:40;;;;;;;3.73;1.90;;;;;;;18.40;56.97;100315.88;2057102;28;20030;-50
2021/05/26 04:03:40;;;;;;;3.73;2.07;;;;;;;18.39;56.96;100308.66;2055908;28;20044;-50
2021/05/26 04:04:41;;;;;;;3.33;2.07;;;;;;;18.39;57.08;100306.78;2056114;28;20074;-50
2021/05/26 04:05:41;;;;;;;2.67;1.70;;;;;;;18.39;57.11;100311.38;2056347;28;20041;-50
2021/05/26 04:06:42;;;;;;;4.50;1.97;;;;;;;18.38;56.99;100307.81;2056376;28;20674;-50
2021/05/26 04:07:43;;;;;;;2.40;1.67;;;;;;;18.38;57.06;100305.06;2055948;28;20042;-51
2021/05/26 04:08:43;;;;;;;6.93;2.15;;;;;;;18.39;57.17;100311.38;2057102;28;20035;-51
2021/05/26 04:09:44;;;;;;;4.23;2.10;;;;;;;18.38;56.97;100313.25;2063130;28;20796;-49
2021/05/26 04:10:44;;;;;;;3.27;2.03;;;;;;;18.38;57.00;100310.53;2063564;28;20452;-49
2021/05/26 04:11:45;;;;;;;3.27;1.87;;;;;;;18.38;57.14;100307.81;2057208;28;20031;-50
2021/05/26 04:12:45;;;;;;;3.07;1.67;;;;;;;18.37;57.12;100306.09;2056343;28;20057;-49
2021/05/26 04:13:46;;;;;;;2.63;1.90;;;;;;;18.37;57.14;100308.81;2057322;28;20511;-50
2021/05/26 04:14:46;;;;;;;3.50;1.87;;;;;;;18.36;57.09;100306.22;2055865;28;20117;-52
2021/05/26 04:15:47;;;;;;;3.40;2.13;;;;;;;18.36;57.14;100312.53;2057173;28;20035;-50
2021/05/26 04:16:47;;;;;;;2.87;1.97;;;;;;;18.36;56.95;100307.06;2056733;28;20037;-49
2021/05/26 04:17:48;;;;;;;3.63;1.83;;;;;;;18.37;56.95;100307.94;2056462;28;20051;-48
2021/05/26 04:18:48;;;;;;;1.93;1.63;;;;;;;18.38;57.12;100315.13;2055975;28;20833;-50
2021/05/26 04:19:49;;;;;;;2.63;1.83;;;;;;;18.35;57.00;100305.38;2055818;28;20064;-51
2021/05/26 04:20:49;;;;;;;3.00;1.97;;;;;;;18.35;57.09;100305.38;2057178;28;20113;-50
2021/05/26 04:21:49;;;;;;;4.10;1.90;;;;;;;18.36;56.96;100307.06;2056864;28;20388;-50
2021/05/26 04:22:50;;;;;;;2.60;1.70;;;;;;;18.36;56.95;100307.06;2056822;28;20093;-48
2021/05/26 04:23:50;;;;;;;3.63;1.70;;;;;;;18.36;56.83;100307.06;2053342;28;20042;-49
2021/05/26 04:24:51;;;;;;;2.50;1.43;;;;;;;18.35;57.08;100308.09;2057142;28;20405;-48
2021/05/26 04:25:51;;;;;;;4.03;2.33;;;;;;;18.36;56.95;100315.25;2056644;28;20359;-51
2021/05/26 04:26:52;;;;;;;3.90;1.77;;;;;;;18.35;57.19;100308.09;2056245;28;20034;-50
2021/05/26 04:27:52;;;;;;;3.27;1.70;;;;;;;18.35;57.01;100310.81;2056527;28;20062;-48
2021/05/26 04:28:53;;;;;;;2.00;1.60;;;;;;;18.35;56.82;100315.41;2055848;28;20022;-51
2021/05/26 04:29:53;;;;;;;4.03;1.40;;;;;;;18.35;56.98;100308.09;2056561;28;20078;-50
2021/05/26 04:30:54;;;;;;;3.60;2.10;;;;;;;18.35;57.02;100309.97;2057302;28;20045;-49
2021/05/26 04:31:56;;;;;;;4.93;2.50;;;;;;;18.35;57.09;100309.97;2055837;28;20022;-50
2021/05/26 04:32:57;;;;;;;4.40;1.90;;;;;;;18.35;57.06;100305.38;2057119;28;20038;-47
2021/05/26 04:33:57;;;;;;;5.20;1.60;;;;;;;18.35;56.83;100305.38;2056399;28;20137;-51
2021/05/26 04:34:57;;;;;;;3.03;1.63;;;;;;;18.35;56.82;100305.38;2055395;28;20030;-50
2021/05/26 04:35:58;;;;;;;4.20;1.60;;;;;;;18.35;56.88;100301.78;2056925;28;20062;-51
2021/05/26 04:36:58;;;;;;;2.00;1.60;;;;;;;18.34;56.96;100303.63;2053431;28;20031;-48
2021/05/26 04:37:59;;;;;;;3.10;1.70;;;;;;;18.34;56.92;100300.88;2055105;28;20062;-48
2021/05/26 04:38:59;;;;;;;3.33;1.63;;;;;;;18.35;56.98;100305.38;2056307;28;20026;-51
2021/05/26 04:40:00;;;;;;;3.50;1.47;;;;;;;18.34;57.01;100297.31;2056655;28;20030;-48
2021/05/26 04:41:01;;;;;;;3.40;1.80;;;;;;;18.34;56.85;100303.63;2056555;28;20045;-50
2021/05/26 04:42:01;;;;;;;2.92;1.85;;;;;;;18.33;56.83;100301.03;2056441;28;20031;-48
2021/05/26 04:43:03;;;;;;;1.90;1.40;;;;;;;18.33;56.87;100299.19;2056943;28;20034;-49
2021/05/26 04:44:04;;;;;;;2.78;1.60;;;;;;;18.34;56.88;100286.38;2055881;28;20114;-50
2021/05/26 04:45:05;;;;;;;4.10;1.90;;;;;;;18.34;56.97;100292.69;2056863;28;20038;-50
2021/05/26 04:46:05;;;;;;;3.28;1.98;;;;;;;18.34;56.90;100298.16;2056267;28;20038;-50
2021/05/26 04:47:05;;;;;;;3.83;1.90;;;;;;;18.34;56.90;100303.63;2056538;28;20038;-49